Chipita Park, Colorado
Current Conditions -  °F | °C
As of 4:58 PM on Saturday 20 Dec 2014 (Local Time) from KAFF Reporting Station
Few Clouds Few Clouds  
Wind Chill: 38°   Ceiling: Unl
Heat Index: 42°   Visibility: 10mi
Dew Point: 15°   Wind: 7mph
Humidity: 33%   Direction: 310°NW
Pressure: 29.94"   Gusts: NA
Location:  38.9233°N, 104.975°W
Report Text: KAFF 202358Z AUTO 31006KT 10SM FEW090 06/M09 A2994 RMK AO2 SLP151 T00581093 10111 20057 52005
Loading
Personal Weather Stations






























Interactive Weather Map New forecast layout! Learn more

10-Day Weather Forecast

Advertisements
Track Severe Weather on mobile